Time;durP1;ratioP1;P1;durP2;ratioP2;P2;SDS_P1;SDS_P2;PMS_P1;PMS_P2;Temp;Humidity;BMP_temperature;BMP_pressure;BME280_temperature;BME280_humidity;BME280_pressure;Samples;Min_cycle;Max_cycle;Signal;HPM_P1;HPM_P2
2021/12/15 00:00:57;;;;;;;1.63;1.10;;;;;;;;;;5058668;28;20403;-81
2021/12/15 00:03:24;;;;;;;1.53;0.80;;;;;;;;;;5077314;28;20451;-81
2021/12/15 00:05:51;;;;;;;1.30;0.80;;;;;;;;;;5077207;28;20418;-80
2021/12/15 00:08:17;;;;;;;2.47;1.40;;;;;;;;;;5066640;28;20422;-80
2021/12/15 00:10:44;;;;;;;2.00;0.90;;;;;;;;;;5076894;28;20407;-81
2021/12/15 00:13:12;;;;;;;1.63;1.07;;;;;;;;;;5076122;28;20475;-81
2021/12/15 00:15:38;;;;;;;1.43;0.60;;;;;;;;;;5064581;28;20414;-80
2021/12/15 00:18:04;;;;;;;1.10;0.70;;;;;;;;;;5077618;28;20784;-80
2021/12/15 00:20:31;;;;;;;1.40;0.80;;;;;;;;;;5077447;28;20920;-81
2021/12/15 00:22:57;;;;;;;1.60;1.10;;;;;;;;;;5077137;28;20451;-80
2021/12/15 00:25:24;;;;;;;1.40;1.10;;;;;;;;;;5090101;28;20425;-80
2021/12/15 00:27:51;;;;;;;1.80;0.97;;;;;;;;;;5098474;28;20440;-80
2021/12/15 00:30:17;;;;;;;0.90;0.60;;;;;;;;;;5095628;28;20405;-81
2021/12/15 00:32:43;;;;;;;1.20;0.67;;;;;;;;;;5095926;28;20416;-81
2021/12/15 00:35:10;;;;;;;1.47;1.00;;;;;;;;;;5085776;28;20797;-81
2021/12/15 00:37:36;;;;;;;1.33;0.70;;;;;;;;;;5059848;28;20443;-81
2021/12/15 00:40:03;;;;;;;1.00;0.60;;;;;;;;;;5059075;28;20453;-81
2021/12/15 00:42:30;;;;;;;1.40;0.80;;;;;;;;;;5076814;28;20507;-81
2021/12/15 00:44:56;;;;;;;1.20;0.77;;;;;;;;;;5077448;28;20836;-82
2021/12/15 00:47:22;;;;;;;1.10;0.77;;;;;;;;;;5077160;28;20411;-81
2021/12/15 00:49:48;;;;;;;1.30;0.77;;;;;;;;;;5075832;28;20402;-81
2021/12/15 00:52:14;;;;;;;1.70;1.03;;;;;;;;;;5056223;28;20406;-81
2021/12/15 00:54:40;;;;;;;2.53;0.90;;;;;;;;;;5062537;28;20417;-81
2021/12/15 00:57:06;;;;;;;1.10;0.60;;;;;;;;;;5096462;28;20459;-81
2021/12/15 00:59:32;;;;;;;1.30;0.80;;;;;;;;;;5096657;28;20409;-81
2021/12/15 01:01:59;;;;;;;1.67;1.10;;;;;;;;;;5097425;28;20409;-80
2021/12/15 01:04:25;;;;;;;1.23;0.70;;;;;;;;;;5092879;28;20515;-81
2021/12/15 01:06:53;;;;;;;1.30;1.00;;;;;;;;;;5074606;28;21000;-81
2021/12/15 01:09:47;;;;;;;1.10;0.60;;;;;;;;;;5074125;28;20477;-81
2021/12/15 01:12:35;;;;;;;1.40;0.90;;;;;;;;;;5072019;28;20415;-81
2021/12/15 01:20:32;;;;;;;1.07;0.77;;;;;;;;;;5098902;28;20429;-81
2021/12/15 01:23:01;;;;;;;1.43;0.90;;;;;;;;;;5099279;28;21010;-81
2021/12/15 01:25:44;;;;;;;1.30;0.80;;;;;;;;;;5067544;28;20418;-81
2021/12/15 01:28:10;;;;;;;4.10;0.90;;;;;;;;;;5078460;28;20429;-81
2021/12/15 01:30:38;;;;;;;1.80;1.30;;;;;;;;;;5060348;28;20431;-80
2021/12/15 01:33:04;;;;;;;1.70;1.10;;;;;;;;;;5081386;28;20765;-81
2021/12/15 01:35:31;;;;;;;1.10;0.70;;;;;;;;;;5092751;28;20422;-81
2021/12/15 01:37:57;;;;;;;1.00;0.70;;;;;;;;;;5082020;28;20948;-81
2021/12/15 01:40:34;;;;;;;1.40;0.80;;;;;;;;;;5081141;28;20421;-81
2021/12/15 01:43:12;;;;;;;1.40;1.13;;;;;;;;;;5099686;28;20457;-81
2021/12/15 01:48:22;;;;;;;1.73;0.93;;;;;;;;;;5079920;28;20402;-81
2021/12/15 01:50:50;;;;;;;1.13;0.80;;;;;;;;;;5079695;28;20403;-81
2021/12/15 01:53:16;;;;;;;1.30;0.73;;;;;;;;;;5061125;28;20411;-81
2021/12/15 01:55:42;;;;;;;1.00;0.70;;;;;;;;;;5091881;28;20509;-81
2021/12/15 01:58:08;;;;;;;1.10;0.70;;;;;;;;;;5100557;28;20922;-81
2021/12/15 02:00:43;;;;;;;1.40;1.10;;;;;;;;;;5101130;28;20394;-81
2021/12/15 02:03:09;;;;;;;4.63;0.80;;;;;;;;;;5081362;28;20602;-80
2021/12/15 02:05:35;;;;;;;1.20;0.90;;;;;;;;;;5086025;28;20725;-80
2021/12/15 02:08:02;;;;;;;1.47;0.90;;;;;;;;;;5078017;28;20450;-80
2021/12/15 02:10:32;;;;;;;1.50;1.10;;;;;;;;;;5077185;28;20410;-80
2021/12/15 02:12:59;;;;;;;4.73;0.73;;;;;;;;;;5059185;28;20551;-80
2021/12/15 02:15:27;;;;;;;1.60;1.00;;;;;;;;;;5087401;28;20449;-80
2021/12/15 02:17:53;;;;;;;1.57;0.80;;;;;;;;;;5097528;28;20932;-80
2021/12/15 02:20:21;;;;;;;1.40;0.80;;;;;;;;;;5097559;28;20402;-81
2021/12/15 02:22:47;;;;;;;1.60;0.90;;;;;;;;;;5098433;28;20602;-80
2021/12/15 02:25:15;;;;;;;1.17;0.77;;;;;;;;;;5089318;28;20415;-80
2021/12/15 02:27:42;;;;;;;1.40;0.83;;;;;;;;;;5058562;28;20453;-80
2021/12/15 02:30:58;;;;;;;1.73;0.90;;;;;;;;;;5077654;28;20413;-80
2021/12/15 02:33:10;;;;;;;4.50;0.90;;;;;;;;;;5084801;28;20506;-80
2021/12/15 02:38:25;;;;;;;1.60;0.70;;;;;;;;;;5098429;28;20475;-81
2021/12/15 02:40:51;;;;;;;1.60;0.80;;;;;;;;;;5098359;28;20485;-81
2021/12/15 02:43:17;;;;;;;3.40;1.10;;;;;;;;;;5084035;28;20930;-81
2021/12/15 02:45:43;;;;;;;3.10;1.67;;;;;;;;;;5060475;28;20421;-81
2021/12/15 02:48:09;;;;;;;1.50;0.80;;;;;;;;;;5059967;28;20450;-81
2021/12/15 02:50:37;;;;;;;1.50;0.80;;;;;;;;;;5077250;28;20405;-81
2021/12/15 02:53:04;;;;;;;1.37;0.90;;;;;;;;;;5072366;28;20429;-80
2021/12/15 02:55:31;;;;;;;1.30;0.80;;;;;;;;;;5099751;28;20409;-81
2021/12/15 02:57:57;;;;;;;1.57;0.83;;;;;;;;;;5099467;28;20429;-81
2021/12/15 03:00:35;;;;;;;1.30;0.70;;;;;;;;;;5099935;28;20406;-81
2021/12/15 03:03:40;;;;;;;1.80;0.90;;;;;;;;;;5070085;28;20480;-81
2021/12/15 03:06:09;;;;;;;1.30;0.80;;;;;;;;;;5075064;28;20461;-80
2021/12/15 03:16:41;;;;;;;2.10;1.20;;;;;;;;;;5095786;28;20487;-82
2021/12/15 03:19:07;;;;;;;2.20;1.10;;;;;;;;;;5097510;28;20897;-81
2021/12/15 03:21:33;;;;;;;1.87;0.90;;;;;;;;;;5078748;28;20428;-81
2021/12/15 03:24:11;;;;;;;1.70;1.00;;;;;;;;;;5059881;28;20472;-81
2021/12/15 03:26:44;;;;;;;1.90;1.10;;;;;;;;;;5076736;28;20828;-81
2021/12/15 03:37:26;;;;;;;3.13;1.33;;;;;;;;;;5097825;28;20963;-82
2021/12/15 03:39:57;;;;;;;2.60;1.13;;;;;;;;;;5078670;28;20416;-81
2021/12/15 03:42:27;;;;;;;2.20;1.27;;;;;;;;;;5074201;28;20446;-81
2021/12/15 03:44:53;;;;;;;2.27;1.03;;;;;;;;;;5077193;28;20771;-81
2021/12/15 03:47:22;;;;;;;1.30;0.80;;;;;;;;;;5059278;28;20422;-81
2021/12/15 03:49:48;;;;;;;1.43;0.80;;;;;;;;;;5059592;28;20747;-81
2021/12/15 03:52:14;;;;;;;1.73;1.03;;;;;;;;;;5059837;28;21014;-81
2021/12/15 03:54:40;;;;;;;2.87;1.37;;;;;;;;;;5097913;28;20412;-81
2021/12/15 03:57:07;;;;;;;2.33;1.13;;;;;;;;;;5097214;28;20480;-82
2021/12/15 03:59:34;;;;;;;1.40;1.10;;;;;;;;;;5077547;28;20413;-81
2021/12/15 04:02:01;;;;;;;1.23;0.70;;;;;;;;;;5096147;28;20440;-81
2021/12/15 04:04:27;;;;;;;1.40;0.90;;;;;;;;;;5075020;28;20830;-82
2021/12/15 04:06:53;;;;;;;1.40;0.87;;;;;;;;;;5075613;28;20434;-83
2021/12/15 04:09:19;;;;;;;1.53;0.87;;;;;;;;;;5075886;28;20975;-81
2021/12/15 04:11:45;;;;;;;2.90;1.70;;;;;;;;;;5075612;28;20399;-83
2021/12/15 04:14:19;;;;;;;1.67;0.83;;;;;;;;;;5094659;28;20793;-82
2021/12/15 04:16:57;;;;;;;1.60;1.10;;;;;;;;;;5075565;28;20436;-79
2021/12/15 04:19:23;;;;;;;4.27;1.63;;;;;;;;;;5074803;28;20409;-83
2021/12/15 04:21:50;;;;;;;1.30;0.87;;;;;;;;;;5077557;28;20486;-81
2021/12/15 04:24:17;;;;;;;2.33;0.90;;;;;;;;;;5058267;28;20469;-81
2021/12/15 04:26:44;;;;;;;4.60;2.03;;;;;;;;;;5075508;28;20421;-81
2021/12/15 04:29:10;;;;;;;1.73;1.00;;;;;;;;;;5056854;28;20410;-81
2021/12/15 04:31:41;;;;;;;1.63;0.90;;;;;;;;;;5056511;28;20751;-81
2021/12/15 04:34:09;;;;;;;1.60;1.07;;;;;;;;;;5093587;28;20453;-81
2021/12/15 04:36:36;;;;;;;1.40;0.73;;;;;;;;;;5077390;28;20447;-82
2021/12/15 04:39:04;;;;;;;1.60;1.00;;;;;;;;;;5095383;28;20410;-81
2021/12/15 04:41:30;;;;;;;1.20;0.80;;;;;;;;;;5076636;28;20414;-83
2021/12/15 04:43:57;;;;;;;4.13;1.07;;;;;;;;;;5078656;28;20821;-81
2021/12/15 04:46:24;;;;;;;1.57;1.03;;;;;;;;;;5056524;28;20522;-81
2021/12/15 04:48:50;;;;;;;1.70;1.00;;;;;;;;;;5056411;28;20415;-81
2021/12/15 04:51:18;;;;;;;1.60;1.00;;;;;;;;;;5076778;28;20407;-80
2021/12/15 04:53:44;;;;;;;2.00;0.93;;;;;;;;;;5073206;28;20971;-80
2021/12/15 04:56:11;;;;;;;2.13;1.13;;;;;;;;;;5080151;28;20446;-81
2021/12/15 04:58:37;;;;;;;3.30;2.30;;;;;;;;;;5098555;28;20402;-81
2021/12/15 05:01:05;;;;;;;3.20;1.70;;;;;;;;;;5098036;28;20738;-81
2021/12/15 05:03:32;;;;;;;3.80;1.77;;;;;;;;;;5088433;28;20464;-81
2021/12/15 05:05:58;;;;;;;2.63;1.70;;;;;;;;;;5060499;28;20425;-81
2021/12/15 05:08:24;;;;;;;3.10;1.77;;;;;;;;;;5080562;28;20916;-82
2021/12/15 05:10:54;;;;;;;3.77;2.20;;;;;;;;;;5061689;28;20411;-82
2021/12/15 05:13:20;;;;;;;4.10;2.10;;;;;;;;;;5089571;28;20516;-80
2021/12/15 05:15:46;;;;;;;2.53;1.43;;;;;;;;;;5099757;28;20444;-81
2021/12/15 05:18:12;;;;;;;2.40;1.10;;;;;;;;;;5099743;28;20927;-81
2021/12/15 05:20:39;;;;;;;2.47;1.30;;;;;;;;;;5099807;28;20401;-82
2021/12/15 05:23:06;;;;;;;1.83;0.90;;;;;;;;;;5073964;28;20854;-81
2021/12/15 05:25:32;;;;;;;2.47;1.50;;;;;;;;;;5061559;28;20411;-81
2021/12/15 05:27:58;;;;;;;1.63;1.17;;;;;;;;;;5079535;28;20419;-82
2021/12/15 05:30:25;;;;;;;1.97;1.43;;;;;;;;;;5060723;28;20399;-81
2021/12/15 05:32:51;;;;;;;1.57;0.93;;;;;;;;;;5084334;28;20517;-81
2021/12/15 05:35:22;;;;;;;3.10;1.67;;;;;;;;;;5081812;28;20414;-81
2021/12/15 05:37:55;;;;;;;1.80;1.13;;;;;;;;;;5081966;28;20429;-80
2021/12/15 05:40:22;;;;;;;4.07;1.63;;;;;;;;;;5080476;28;20832;-80
2021/12/15 05:42:48;;;;;;;1.93;1.20;;;;;;;;;;5065626;28;20461;-81
2021/12/15 05:45:14;;;;;;;3.43;2.00;;;;;;;;;;5081593;28;20429;-81
2021/12/15 05:47:41;;;;;;;1.80;1.40;;;;;;;;;;5100016;28;20442;-86
2021/12/15 05:50:10;;;;;;;2.50;1.67;;;;;;;;;;5098529;28;20793;-80
2021/12/15 05:52:36;;;;;;;2.60;1.60;;;;;;;;;;5096973;28;20405;-80
2021/12/15 05:55:05;;;;;;;2.00;1.40;;;;;;;;;;5060608;28;20415;-80
2021/12/15 05:57:31;;;;;;;2.70;1.60;;;;;;;;;;5079149;28;20491;-80
2021/12/15 05:59:57;;;;;;;2.67;1.50;;;;;;;;;;5060591;28;20419;-81
2021/12/15 06:02:23;;;;;;;3.63;1.47;;;;;;;;;;5059657;28;20469;-81
2021/12/15 06:04:49;;;;;;;3.10;1.63;;;;;;;;;;5061993;28;20429;-81
2021/12/15 06:07:15;;;;;;;3.53;1.63;;;;;;;;;;5055685;28;20443;-81
2021/12/15 06:09:41;;;;;;;1.63;1.13;;;;;;;;;;5076297;28;21000;-80
2021/12/15 06:12:08;;;;;;;1.90;1.30;;;;;;;;;;5077393;28;20952;-81
2021/12/15 06:14:34;;;;;;;2.27;0.97;;;;;;;;;;5077710;28;20423;-81
2021/12/15 06:17:05;;;;;;;4.50;1.90;;;;;;;;;;5059098;28;20453;-80
2021/12/15 06:19:32;;;;;;;2.10;1.27;;;;;;;;;;5076870;28;20442;-81
2021/12/15 06:21:58;;;;;;;5.13;1.07;;;;;;;;;;5059180;28;20427;-79
2021/12/15 06:24:25;;;;;;;2.93;1.50;;;;;;;;;;5089833;28;20433;-81
2021/12/15 06:26:51;;;;;;;3.83;1.30;;;;;;;;;;5072932;28;20453;-81
2021/12/15 06:29:17;;;;;;;2.00;1.23;;;;;;;;;;5076529;28;20468;-80
2021/12/15 06:31:43;;;;;;;2.20;1.20;;;;;;;;;;5058462;28;20418;-80
2021/12/15 06:34:09;;;;;;;2.77;1.27;;;;;;;;;;5058726;28;20419;-80
2021/12/15 06:36:35;;;;;;;4.50;1.10;;;;;;;;;;5059397;28;20438;-81
2021/12/15 06:39:04;;;;;;;1.83;1.00;;;;;;;;;;5078524;28;20407;-80
2021/12/15 06:41:30;;;;;;;1.80;0.93;;;;;;;;;;5077901;28;20430;-80
2021/12/15 06:43:57;;;;;;;2.20;1.30;;;;;;;;;;5076921;28;20539;-80
2021/12/15 06:46:47;;;;;;;2.50;1.20;;;;;;;;;;5077188;28;20422;-80
2021/12/15 06:58:10;;;;;;;2.70;1.33;;;;;;;;;;5077769;28;20425;-80
2021/12/15 07:00:17;;;;;;;2.40;1.50;;;;;;;;;;5076790;28;20438;-80
2021/12/15 07:02:44;;;;;;;3.07;1.80;;;;;;;;;;5075946;28;20976;-81
2021/12/15 07:05:11;;;;;;;2.50;1.20;;;;;;;;;;5059367;28;20411;-81
2021/12/15 07:07:39;;;;;;;2.40;1.60;;;;;;;;;;5059490;28;20632;-81
2021/12/15 07:10:06;;;;;;;1.63;1.10;;;;;;;;;;5077066;28;20399;-81
2021/12/15 07:12:32;;;;;;;1.80;1.13;;;;;;;;;;5078370;28;20456;-81
2021/12/15 07:14:58;;;;;;;5.40;1.50;;;;;;;;;;5059904;28;20415;-81
2021/12/15 07:17:25;;;;;;;1.90;1.17;;;;;;;;;;5078532;28;20425;-81
2021/12/15 07:22:33;;;;;;;6.43;1.77;;;;;;;;;;5077723;28;20454;-81
2021/12/15 07:25:00;;;;;;;1.93;1.10;;;;;;;;;;5059777;28;20839;-82
2021/12/15 07:27:26;;;;;;;2.50;1.50;;;;;;;;;;5077209;28;20419;-82
2021/12/15 07:29:52;;;;;;;2.53;1.33;;;;;;;;;;5077440;28;21061;-81
2021/12/15 07:32:18;;;;;;;2.40;1.47;;;;;;;;;;5076843;28;20430;-81
2021/12/15 07:34:44;;;;;;;3.03;1.70;;;;;;;;;;5077667;28;20411;-80
2021/12/15 07:37:10;;;;;;;4.23;1.60;;;;;;;;;;5070004;28;20458;-78
2021/12/15 07:39:37;;;;;;;4.03;1.60;;;;;;;;;;5088867;28;20495;-80
2021/12/15 07:42:10;;;;;;;3.00;1.77;;;;;;;;;;5075401;28;20493;-81
2021/12/15 07:44:37;;;;;;;2.33;1.50;;;;;;;;;;5053500;28;20414;-81
2021/12/15 07:47:03;;;;;;;2.20;1.40;;;;;;;;;;5053911;28;20426;-81
2021/12/15 07:49:29;;;;;;;1.83;1.10;;;;;;;;;;5053459;28;20809;-81
2021/12/15 07:52:14;;;;;;;2.10;1.50;;;;;;;;;;5053764;28;20407;-81
2021/12/15 07:54:40;;;;;;;3.20;1.30;;;;;;;;;;5053411;28;20415;-82
2021/12/15 07:57:16;;;;;;;1.90;1.30;;;;;;;;;;5071250;28;20433;-81
2021/12/15 07:59:42;;;;;;;3.20;1.57;;;;;;;;;;5053342;28;20853;-81
2021/12/15 08:02:08;;;;;;;5.93;1.30;;;;;;;;;;5072133;28;20406;-81
2021/12/15 08:04:34;;;;;;;2.47;1.50;;;;;;;;;;5071878;28;20924;-82
2021/12/15 08:07:00;;;;;;;2.13;1.23;;;;;;;;;;5054045;28;20480;-82
2021/12/15 08:09:26;;;;;;;1.60;1.10;;;;;;;;;;5071757;28;20406;-82
2021/12/15 08:11:52;;;;;;;2.00;1.20;;;;;;;;;;5072723;28;20894;-81
2021/12/15 08:14:18;;;;;;;1.90;1.30;;;;;;;;;;5054572;28;20410;-81
2021/12/15 08:16:44;;;;;;;3.40;1.77;;;;;;;;;;5073069;28;20838;-81
2021/12/15 08:19:16;;;;;;;3.13;1.50;;;;;;;;;;5054907;28;20755;-81
2021/12/15 08:21:42;;;;;;;1.90;1.20;;;;;;;;;;5072769;28;20401;-80
2021/12/15 08:24:08;;;;;;;1.93;1.20;;;;;;;;;;5074021;28;20602;-82
2021/12/15 08:26:34;;;;;;;11.50;1.57;;;;;;;;;;5076618;28;20509;-82
2021/12/15 08:29:00;;;;;;;2.07;1.30;;;;;;;;;;5058763;28;20413;-82
2021/12/15 08:31:26;;;;;;;1.90;1.20;;;;;;;;;;5077197;28;20410;-82
2021/12/15 08:33:52;;;;;;;1.40;0.90;;;;;;;;;;5059911;28;20406;-83
2021/12/15 08:36:18;;;;;;;2.27;1.20;;;;;;;;;;5077880;28;20426;-82
2021/12/15 08:38:46;;;;;;;1.93;1.20;;;;;;;;;;5078562;28;20410;-81
2021/12/15 08:41:14;;;;;;;1.80;1.20;;;;;;;;;;5059508;28;20499;-81
2021/12/15 08:43:40;;;;;;;1.30;0.80;;;;;;;;;;5077954;28;20553;-81
2021/12/15 08:46:09;;;;;;;1.70;0.83;;;;;;;;;;5059525;28;20410;-80
2021/12/15 08:48:37;;;;;;;1.50;1.07;;;;;;;;;;5078109;28;20900;-81
2021/12/15 08:51:04;;;;;;;2.87;1.00;;;;;;;;;;5059555;28;20446;-81
2021/12/15 08:53:30;;;;;;;1.63;1.10;;;;;;;;;;5077322;28;20544;-81
2021/12/15 08:55:56;;;;;;;2.70;1.30;;;;;;;;;;5077761;28;20402;-81
2021/12/15 08:58:22;;;;;;;1.60;1.13;;;;;;;;;;5077937;28;20413;-81
2021/12/15 09:00:50;;;;;;;1.60;1.07;;;;;;;;;;5077862;28;20782;-80
2021/12/15 09:03:17;;;;;;;1.43;1.10;;;;;;;;;;5060148;28;20540;-79
2021/12/15 09:05:43;;;;;;;1.87;1.27;;;;;;;;;;5059815;28;20414;-79
2021/12/15 09:08:10;;;;;;;1.77;1.03;;;;;;;;;;5059529;28;20449;-80
2021/12/15 09:10:39;;;;;;;1.80;1.10;;;;;;;;;;5077020;28;20489;-80
2021/12/15 09:13:05;;;;;;;1.87;1.37;;;;;;;;;;5077867;28;20503;-80
2021/12/15 09:15:31;;;;;;;2.10;1.20;;;;;;;;;;5059768;28;20576;-79
2021/12/15 09:17:58;;;;;;;1.70;1.13;;;;;;;;;;5077899;28;20480;-80
2021/12/15 09:20:25;;;;;;;1.97;0.90;;;;;;;;;;5060079;28;20425;-82
2021/12/15 09:22:51;;;;;;;2.40;0.97;;;;;;;;;;5060340;28;21011;-80
2021/12/15 09:25:17;;;;;;;1.37;1.00;;;;;;;;;;5079238;28;20817;-81
2021/12/15 09:27:44;;;;;;;1.60;1.03;;;;;;;;;;5061144;28;20419;-80
2021/12/15 09:30:11;;;;;;;2.93;0.83;;;;;;;;;;5060826;28;20418;-81
2021/12/15 09:32:38;;;;;;;1.50;0.80;;;;;;;;;;5078809;28;20452;-80
2021/12/15 09:35:04;;;;;;;1.50;1.00;;;;;;;;;;5060223;28;20501;-80
2021/12/15 09:37:30;;;;;;;1.80;1.30;;;;;;;;;;5078621;28;20422;-80
2021/12/15 09:39:57;;;;;;;1.40;1.00;;;;;;;;;;5078560;28;20433;-80
2021/12/15 09:42:30;;;;;;;1.67;0.90;;;;;;;;;;5060665;28;20997;-80
2021/12/15 09:45:04;;;;;;;2.03;0.83;;;;;;;;;;5060236;28;20833;-80
2021/12/15 10:02:05;;;;;;;1.53;1.03;;;;;;;;;;5033675;28;20423;-80
2021/12/15 10:04:47;;;;;;;1.73;0.93;;;;;;;;;;5078347;28;20438;-80
2021/12/15 10:18:15;;;;;;;1.43;0.90;;;;;;;;;;5079227;28;20532;-80
2021/12/15 10:20:42;;;;;;;4.70;1.00;;;;;;;;;;5060587;28;20465;-81
2021/12/15 10:23:13;;;;;;;1.70;1.00;;;;;;;;;;5060684;28;20895;-80
2021/12/15 10:25:45;;;;;;;4.03;0.90;;;;;;;;;;5078916;28;20460;-79
2021/12/15 10:28:14;;;;;;;8.40;1.20;;;;;;;;;;5078725;28;20415;-81
2021/12/15 10:30:42;;;;;;;2.57;1.00;;;;;;;;;;5060540;28;20914;-81
2021/12/15 10:33:12;;;;;;;22.93;1.40;;;;;;;;;;5078833;28;20406;-80
2021/12/15 10:35:40;;;;;;;5.80;1.10;;;;;;;;;;5078436;28;20435;-80
2021/12/15 10:38:17;;;;;;;6.53;1.23;;;;;;;;;;5060510;28;20802;-80
2021/12/15 10:40:45;;;;;;;9.90;1.17;;;;;;;;;;5078765;28;20414;-81
2021/12/15 10:43:11;;;;;;;1.33;0.77;;;;;;;;;;5079111;28;20507;-80
2021/12/15 10:45:40;;;;;;;2.83;1.10;;;;;;;;;;5078651;28;20498;-80
2021/12/15 10:48:14;;;;;;;2.80;1.00;;;;;;;;;;5060383;28;20440;-80
2021/12/15 10:50:41;;;;;;;9.90;1.27;;;;;;;;;;5078993;28;20418;-80
2021/12/15 10:53:07;;;;;;;2.37;1.00;;;;;;;;;;5078547;28;20771;-81
2021/12/15 10:55:34;;;;;;;2.50;1.00;;;;;;;;;;5078356;28;20414;-81
2021/12/15 10:58:01;;;;;;;1.40;0.90;;;;;;;;;;5078509;28;20458;-80
2021/12/15 11:00:32;;;;;;;4.30;1.00;;;;;;;;;;5060051;28;20442;-80
2021/12/15 11:03:13;;;;;;;1.20;0.80;;;;;;;;;;5060430;28;20881;-80
2021/12/15 11:05:40;;;;;;;1.83;1.00;;;;;;;;;;5060212;28;20440;-80
2021/12/15 11:08:06;;;;;;;1.57;0.90;;;;;;;;;;5111513;22;20537;-79
2021/12/15 11:10:34;;;;;;;2.23;1.10;;;;;;;;;;5094424;28;20451;-80
2021/12/15 11:13:02;;;;;;;1.70;1.10;;;;;;;;;;5095294;28;20398;-80
2021/12/15 11:15:36;;;;;;;3.57;0.90;;;;;;;;;;5076517;28;20402;-80
2021/12/15 11:18:05;;;;;;;1.80;0.90;;;;;;;;;;5094788;28;20993;-79
2021/12/15 11:20:33;;;;;;;1.60;0.87;;;;;;;;;;5094668;28;20398;-80
2021/12/15 11:23:02;;;;;;;1.33;0.90;;;;;;;;;;5094729;28;20504;-79
2021/12/15 11:25:28;;;;;;;3.10;1.00;;;;;;;;;;5076178;28;20402;-79
2021/12/15 11:27:57;;;;;;;2.13;0.87;;;;;;;;;;5077137;28;20491;-79
2021/12/15 11:30:26;;;;;;;2.13;1.00;;;;;;;;;;5093167;28;20398;-80
2021/12/15 11:32:53;;;;;;;4.63;1.07;;;;;;;;;;5092255;28;20402;-79
2021/12/15 11:35:22;;;;;;;1.90;1.03;;;;;;;;;;5074259;28;20746;-79
2021/12/15 11:38:03;;;;;;;2.47;1.00;;;;;;;;;;5092142;28;20788;-79
2021/12/15 11:40:32;;;;;;;1.10;0.70;;;;;;;;;;5073652;28;20402;-80
2021/12/15 11:42:58;;;;;;;2.07;1.00;;;;;;;;;;5092074;28;20601;-79
2021/12/15 11:45:25;;;;;;;1.30;0.80;;;;;;;;;;5091856;28;20648;-79
2021/12/15 11:47:51;;;;;;;1.10;0.70;;;;;;;;;;5092003;28;20849;-79
2021/12/15 11:50:20;;;;;;;1.30;0.80;;;;;;;;;;5091708;28;20401;-80
2021/12/15 11:52:48;;;;;;;1.70;0.87;;;;;;;;;;5091791;28;20960;-79
2021/12/15 11:55:28;;;;;;;2.10;0.97;;;;;;;;;;5091729;28;20394;-79
2021/12/15 11:57:55;;;;;;;1.83;0.87;;;;;;;;;;5091698;28;20413;-79
2021/12/15 12:00:22;;;;;;;1.23;0.77;;;;;;;;;;5072363;28;20406;-79
2021/12/15 12:02:54;;;;;;;1.77;0.80;;;;;;;;;;5091786;28;20456;-79
2021/12/15 12:05:20;;;;;;;1.37;0.70;;;;;;;;;;5091881;28;20475;-79
2021/12/15 12:07:54;;;;;;;1.30;0.80;;;;;;;;;;5073901;28;20964;-79
2021/12/15 12:10:28;;;;;;;1.30;0.70;;;;;;;;;;5073491;28;20445;-79
2021/12/15 12:13:11;;;;;;;1.20;0.80;;;;;;;;;;5091672;28;20764;-79
2021/12/15 12:15:39;;;;;;;1.43;0.80;;;;;;;;;;5091841;28;20440;-79
2021/12/15 12:18:07;;;;;;;1.60;0.80;;;;;;;;;;5073935;28;20422;-79
2021/12/15 12:20:36;;;;;;;1.20;0.80;;;;;;;;;;5091180;28;20917;-79
2021/12/15 12:23:03;;;;;;;1.20;0.80;;;;;;;;;;5091459;28;20506;-80
2021/12/15 12:25:34;;;;;;;1.80;1.00;;;;;;;;;;5091562;28;20417;-79
2021/12/15 12:28:00;;;;;;;9.77;0.90;;;;;;;;;;5073676;28;20413;-79
2021/12/15 12:30:32;;;;;;;1.00;0.70;;;;;;;;;;5093159;28;20425;-83
2021/12/15 12:32:59;;;;;;;1.30;0.90;;;;;;;;;;5073725;28;20445;-79
2021/12/15 12:35:27;;;;;;;1.27;0.90;;;;;;;;;;5093779;28;20408;-82
2021/12/15 12:37:54;;;;;;;1.40;0.80;;;;;;;;;;5075144;28;20871;-79
2021/12/15 12:40:20;;;;;;;1.60;0.87;;;;;;;;;;5091304;28;20799;-83
2021/12/15 12:42:47;;;;;;;1.30;0.83;;;;;;;;;;5076150;28;20502;-82
2021/12/15 12:45:16;;;;;;;1.00;0.70;;;;;;;;;;5092889;28;20394;-79
2021/12/15 12:48:06;;;;;;;1.37;0.80;;;;;;;;;;5091160;28;20425;-79
2021/12/15 12:50:52;;;;;;;1.50;0.80;;;;;;;;;;5090778;28;20413;-79
2021/12/15 12:59:29;;;;;;;2.50;0.87;;;;;;;;;;5009645;28;20493;-79
2021/12/15 13:01:56;;;;;;;2.50;1.00;;;;;;;;;;5053088;28;20459;-78
2021/12/15 13:04:22;;;;;;;1.60;0.83;;;;;;;;;;5073454;28;20892;-78
2021/12/15 13:06:49;;;;;;;2.23;0.80;;;;;;;;;;5091573;28;20401;-79
2021/12/15 13:09:19;;;;;;;2.17;0.93;;;;;;;;;;5092038;28;20410;-78
2021/12/15 13:11:49;;;;;;;2.20;0.77;;;;;;;;;;5074800;28;20930;-80
2021/12/15 13:14:17;;;;;;;1.70;0.90;;;;;;;;;;5095103;28;20402;-80
2021/12/15 13:16:49;;;;;;;3.20;0.90;;;;;;;;;;5091784;28;20441;-79
2021/12/15 13:19:25;;;;;;;1.50;0.90;;;;;;;;;;5093432;28;20413;-80
2021/12/15 13:22:19;;;;;;;2.93;1.00;;;;;;;;;;5073525;28;20422;-78
2021/12/15 13:30:43;;;;;;;1.50;0.80;;;;;;;;;;5074411;28;20398;-78
2021/12/15 13:33:14;;;;;;;1.17;0.80;;;;;;;;;;5074969;28;20418;-78
2021/12/15 13:35:40;;;;;;;1.57;0.90;;;;;;;;;;5074591;28;20399;-78
2021/12/15 13:38:06;;;;;;;1.93;1.07;;;;;;;;;;5074902;28;20426;-78
2021/12/15 13:40:45;;;;;;;6.00;0.87;;;;;;;;;;5075717;28;20474;-79
2021/12/15 13:43:30;;;;;;;3.63;0.90;;;;;;;;;;5078879;28;20975;-79
2021/12/15 13:45:55;;;;;;;3.20;1.30;;;;;;;;;;5079149;28;20853;-79
2021/12/15 13:48:40;;;;;;;1.97;1.03;;;;;;;;;;5078865;28;20476;-79
2021/12/15 13:51:06;;;;;;;2.30;1.10;;;;;;;;;;5077468;28;20399;-79
2021/12/15 13:53:32;;;;;;;1.73;1.00;;;;;;;;;;5080211;28;20494;-81
2021/12/15 13:55:58;;;;;;;4.97;1.00;;;;;;;;;;5079929;28;20441;-80
2021/12/15 13:58:25;;;;;;;4.17;1.20;;;;;;;;;;5080334;28;20532;-79
2021/12/15 14:00:54;;;;;;;4.00;1.30;;;;;;;;;;5079116;28;20419;-79
2021/12/15 14:03:27;;;;;;;1.20;0.80;;;;;;;;;;5102482;28;20453;-79
2021/12/15 14:05:55;;;;;;;2.20;1.20;;;;;;;;;;5081441;28;20418;-80
2021/12/15 14:08:28;;;;;;;2.30;1.33;;;;;;;;;;5100506;28;20490;-79
2021/12/15 14:10:57;;;;;;;1.60;0.97;;;;;;;;;;5082168;28;20417;-79
2021/12/15 14:13:31;;;;;;;2.07;1.10;;;;;;;;;;5098919;28;20410;-80
2021/12/15 14:15:57;;;;;;;1.37;0.63;;;;;;;;;;5077542;28;20987;-80
2021/12/15 14:18:28;;;;;;;1.87;1.03;;;;;;;;;;5076362;28;20529;-80
2021/12/15 14:20:54;;;;;;;2.27;1.03;;;;;;;;;;5094061;28;20406;-79
2021/12/15 14:23:23;;;;;;;3.97;1.50;;;;;;;;;;5093027;28;20457;-79
2021/12/15 14:25:49;;;;;;;2.77;1.30;;;;;;;;;;5094041;28;20398;-79
2021/12/15 14:28:17;;;;;;;2.13;1.07;;;;;;;;;;5093619;28;20429;-80
2021/12/15 14:30:45;;;;;;;2.77;1.30;;;;;;;;;;5096504;28;20402;-80
2021/12/15 14:33:22;;;;;;;1.93;0.90;;;;;;;;;;5078458;28;20971;-80
2021/12/15 14:35:48;;;;;;;1.47;0.90;;;;;;;;;;5097262;28;20493;-80
2021/12/15 14:38:15;;;;;;;1.80;1.00;;;;;;;;;;5097526;28;20916;-80
2021/12/15 14:40:41;;;;;;;1.90;1.23;;;;;;;;;;5077884;28;20406;-79
2021/12/15 14:43:10;;;;;;;2.37;1.20;;;;;;;;;;5077755;28;20964;-80
2021/12/15 14:45:36;;;;;;;5.47;1.80;;;;;;;;;;5097497;28;20406;-80
2021/12/15 14:48:15;;;;;;;11.53;3.20;;;;;;;;;;5097622;28;20429;-81
2021/12/15 14:50:41;;;;;;;14.97;4.67;;;;;;;;;;5099363;28;20420;-82
2021/12/15 14:53:08;;;;;;;17.80;5.67;;;;;;;;;;5081014;28;20780;-81
2021/12/15 14:55:34;;;;;;;15.00;5.97;;;;;;;;;;5082481;28;20418;-80
2021/12/15 14:58:00;;;;;;;18.50;6.40;;;;;;;;;;5099985;28;20526;-80
2021/12/15 15:00:29;;;;;;;20.37;6.50;;;;;;;;;;5098839;28;20470;-80
2021/12/15 15:02:57;;;;;;;22.33;6.60;;;;;;;;;;5080121;28;20457;-81
2021/12/15 15:05:28;;;;;;;27.13;6.67;;;;;;;;;;5098242;28;20467;-79
2021/12/15 15:07:57;;;;;;;14.43;6.40;;;;;;;;;;5080564;28;20967;-79
2021/12/15 15:10:24;;;;;;;16.70;6.63;;;;;;;;;;5098740;28;20922;-80
2021/12/15 15:12:51;;;;;;;17.00;6.90;;;;;;;;;;5079479;28;20411;-81
2021/12/15 15:15:26;;;;;;;25.93;7.87;;;;;;;;;;5057501;28;20423;-82
2021/12/15 15:18:01;;;;;;;21.43;6.53;;;;;;;;;;5056487;28;20434;-81
2021/12/15 15:20:32;;;;;;;19.30;6.67;;;;;;;;;;5074699;28;20415;-82
2021/12/15 15:22:59;;;;;;;26.20;7.70;;;;;;;;;;5057476;28;20458;-81
2021/12/15 15:25:30;;;;;;;16.27;6.60;;;;;;;;;;5057694;28;20411;-82
2021/12/15 15:27:58;;;;;;;21.70;8.03;;;;;;;;;;5057426;28;20427;-82
2021/12/15 15:30:25;;;;;;;25.10;9.00;;;;;;;;;;5075007;28;20403;-81
2021/12/15 15:32:53;;;;;;;17.60;7.30;;;;;;;;;;5056067;28;20422;-82
2021/12/15 15:35:22;;;;;;;19.17;6.57;;;;;;;;;;5057495;28;20521;-81
2021/12/15 15:37:48;;;;;;;19.63;7.77;;;;;;;;;;5075064;28;20426;-81
2021/12/15 15:40:14;;;;;;;25.37;7.97;;;;;;;;;;5056485;28;20487;-81
2021/12/15 15:42:41;;;;;;;21.17;6.30;;;;;;;;;;5074178;28;20454;-81
2021/12/15 15:45:19;;;;;;;22.83;7.10;;;;;;;;;;5073703;28;20785;-81
2021/12/15 15:47:45;;;;;;;18.60;6.03;;;;;;;;;;5056905;28;20806;-81
2021/12/15 15:50:11;;;;;;;25.63;8.60;;;;;;;;;;5075314;28;20407;-81
2021/12/15 15:52:48;;;;;;;26.40;7.67;;;;;;;;;;5076348;28;20411;-80
2021/12/15 15:55:15;;;;;;;16.80;7.03;;;;;;;;;;5076125;28;20932;-81
2021/12/15 15:57:47;;;;;;;32.60;8.73;;;;;;;;;;5074580;28;20925;-82
2021/12/15 16:00:14;;;;;;;27.60;9.47;;;;;;;;;;5057881;28;20430;-82
2021/12/15 16:02:40;;;;;;;26.40;8.50;;;;;;;;;;5058140;28;20451;-82
2021/12/15 16:05:07;;;;;;;23.97;7.80;;;;;;;;;;5059098;28;20434;-82